sensor_id;sensor_type;location;lat;lon;timestamp;pressure;altitude;pressure_sealevel;temperature;humidity
61035;BME280;46916;40.564;-7.958;2023-01-04T00:00:52;99014.81;;;8.09;64.55
61035;BME280;46916;40.564;-7.958;2023-01-04T00:02:52;99016.59;;;8.09;64.12
61035;BME280;46916;40.564;-7.958;2023-01-04T00:04:53;99014.59;;;7.97;63.90
61035;BME280;46916;40.564;-7.958;2023-01-04T00:06:54;99009.50;;;7.93;64.15
61035;BME280;46916;40.564;-7.958;2023-01-04T00:08:54;99014.81;;;7.92;64.01
61035;BME280;46916;40.564;-7.958;2023-01-04T00:11:03;99016.50;;;7.93;63.89
61035;BME280;46916;40.564;-7.958;2023-01-04T00:13:04;99009.28;;;7.98;63.73
61035;BME280;46916;40.564;-7.958;2023-01-04T00:15:05;99016.03;;;8.02;63.55
61035;BME280;46916;40.564;-7.958;2023-01-04T00:17:06;99008.81;;;8.07;63.40
61035;BME280;46916;40.564;-7.958;2023-01-04T00:19:06;99005.91;;;8.13;62.97
61035;BME280;46916;40.564;-7.958;2023-01-04T00:21:08;99001.31;;;8.18;63.06
61035;BME280;46916;40.564;-7.958;2023-01-04T00:23:09;99001.88;;;8.25;62.69
61035;BME280;46916;40.564;-7.958;2023-01-04T00:25:10;99003.41;;;8.29;62.61
61035;BME280;46916;40.564;-7.958;2023-01-04T00:27:10;99003.16;;;8.34;62.31
61035;BME280;46916;40.564;-7.958;2023-01-04T00:29:12;99002.97;;;8.38;61.98
61035;BME280;46916;40.564;-7.958;2023-01-04T00:31:14;99002.03;;;8.39;61.95
61035;BME280;46916;40.564;-7.958;2023-01-04T00:33:15;99001.03;;;8.42;61.76
61035;BME280;46916;40.564;-7.958;2023-01-04T00:35:15;99001.03;;;8.42;61.51
61035;BME280;46916;40.564;-7.958;2023-01-04T00:37:16;98996.75;;;8.41;61.77
61035;BME280;46916;40.564;-7.958;2023-01-04T00:39:17;99002.13;;;8.36;61.26
61035;BME280;46916;40.564;-7.958;2023-01-04T00:41:18;99001.78;;;8.27;61.26
61035;BME280;46916;40.564;-7.958;2023-01-04T00:43:18;99006.28;;;8.23;60.99
61035;BME280;46916;40.564;-7.958;2023-01-04T00:45:19;99005.59;;;8.19;61.25
61035;BME280;46916;40.564;-7.958;2023-01-04T00:47:19;99008.53;;;8.13;61.11
61035;BME280;46916;40.564;-7.958;2023-01-04T00:49:20;99013.16;;;8.08;61.28
61035;BME280;46916;40.564;-7.958;2023-01-04T00:51:21;99007.91;;;8.08;61.12
61035;BME280;46916;40.564;-7.958;2023-01-04T00:53:22;99010.69;;;8.05;60.72
61035;BME280;46916;40.564;-7.958;2023-01-04T00:55:22;99015.28;;;8.00;60.76
61035;BME280;46916;40.564;-7.958;2023-01-04T00:57:23;99009.19;;;8.00;61.03
61035;BME280;46916;40.564;-7.958;2023-01-04T00:59:23;99007.28;;;8.03;61.20
61035;BME280;46916;40.564;-7.958;2023-01-04T01:01:25;99001.00;;;8.07;61.04
61035;BME280;46916;40.564;-7.958;2023-01-04T01:03:26;99011.16;;;8.13;60.75
61035;BME280;46916;40.564;-7.958;2023-01-04T01:05:27;98999.63;;;8.17;60.13
61035;BME280;46916;40.564;-7.958;2023-01-04T01:07:27;99011.16;;;8.13;60.00
61035;BME280;46916;40.564;-7.958;2023-01-04T01:09:28;99003.59;;;8.07;60.30
61035;BME280;46916;40.564;-7.958;2023-01-04T01:11:29;98998.38;;;8.07;60.09
61035;BME280;46916;40.564;-7.958;2023-01-04T01:13:30;98999.63;;;8.00;59.97
61035;BME280;46916;40.564;-7.958;2023-01-04T01:15:33;99007.88;;;7.91;60.29
61035;BME280;46916;40.564;-7.958;2023-01-04T01:17:34;99004.97;;;7.80;60.72
61035;BME280;46916;40.564;-7.958;2023-01-04T01:19:35;99003.47;;;7.74;61.00
61035;BME280;46916;40.564;-7.958;2023-01-04T01:21:36;99001.19;;;7.68;61.44
61035;BME280;46916;40.564;-7.958;2023-01-04T01:23:37;98994.97;;;7.70;61.28
61035;BME280;46916;40.564;-7.958;2023-01-04T01:25:39;99002.94;;;7.67;61.30
61035;BME280;46916;40.564;-7.958;2023-01-04T01:27:39;98999.69;;;7.62;61.01
61035;BME280;46916;40.564;-7.958;2023-01-04T01:29:40;98989.72;;;7.53;61.48
61035;BME280;46916;40.564;-7.958;2023-01-04T01:31:41;98995.06;;;7.50;61.70
61035;BME280;46916;40.564;-7.958;2023-01-04T01:33:43;98991.84;;;7.45;62.11
61035;BME280;46916;40.564;-7.958;2023-01-04T01:35:44;98988.59;;;7.40;61.92
61035;BME280;46916;40.564;-7.958;2023-01-04T01:37:45;98993.19;;;7.35;62.47
61035;BME280;46916;40.564;-7.958;2023-01-04T01:39:45;98999.31;;;7.34;62.55
61035;BME280;46916;40.564;-7.958;2023-01-04T01:41:46;98991.66;;;7.31;62.29
61035;BME280;46916;40.564;-7.958;2023-01-04T01:45:53;98987.75;;;7.20;62.98
61035;BME280;46916;40.564;-7.958;2023-01-04T01:48:00;98992.13;;;7.20;63.08
61035;BME280;46916;40.564;-7.958;2023-01-04T01:50:04;98998.19;;;7.20;63.13
61035;BME280;46916;40.564;-7.958;2023-01-04T01:52:10;98991.22;;;7.21;63.75
61035;BME280;46916;40.564;-7.958;2023-01-04T01:54:18;98991.16;;;7.23;63.33
61035;BME280;46916;40.564;-7.958;2023-01-04T01:56:20;98997.22;;;7.23;63.63
61035;BME280;46916;40.564;-7.958;2023-01-04T01:58:33;99001.16;;;7.32;63.66
61035;BME280;46916;40.564;-7.958;2023-01-04T02:00:35;99000.09;;;7.36;63.36
61035;BME280;46916;40.564;-7.958;2023-01-04T02:02:36;98999.97;;;7.39;63.66
61035;BME280;46916;40.564;-7.958;2023-01-04T02:04:42;99005.09;;;7.40;63.40
61035;BME280;46916;40.564;-7.958;2023-01-04T02:06:49;99005.09;;;7.40;63.39
61035;BME280;46916;40.564;-7.958;2023-01-04T02:08:50;99000.72;;;7.41;63.81
61035;BME280;46916;40.564;-7.958;2023-01-04T02:10:51;99009.38;;;7.41;63.93
61035;BME280;46916;40.564;-7.958;2023-01-04T02:12:52;99007.47;;;7.45;63.71
61035;BME280;46916;40.564;-7.958;2023-01-04T02:14:53;99003.06;;;7.47;63.65
61035;BME280;46916;40.564;-7.958;2023-01-04T02:17:17;99006.50;;;7.48;63.46
61035;BME280;46916;40.564;-7.958;2023-01-04T02:26:31;99008.13;;;7.31;64.77
61035;BME280;46916;40.564;-7.958;2023-01-04T02:35:46;99009.72;;;7.34;64.50
61035;BME280;46916;40.564;-7.958;2023-01-04T02:38:17;99010.56;;;7.34;64.88
61035;BME280;46916;40.564;-7.958;2023-01-04T02:40:47;99010.66;;;7.33;65.09
61035;BME280;46916;40.564;-7.958;2023-01-04T02:42:49;99018.34;;;7.36;64.71
61035;BME280;46916;40.564;-7.958;2023-01-04T02:45:14;99017.31;;;7.38;64.88
61035;BME280;46916;40.564;-7.958;2023-01-04T02:47:28;99015.59;;;7.39;65.00
61035;BME280;46916;40.564;-7.958;2023-01-04T02:49:48;99013.88;;;7.38;64.77
61035;BME280;46916;40.564;-7.958;2023-01-04T02:52:07;99011.44;;;7.35;65.15
61035;BME280;46916;40.564;-7.958;2023-01-04T02:54:14;99008.88;;;7.33;65.28
61035;BME280;46916;40.564;-7.958;2023-01-04T02:56:29;99006.41;;;7.30;65.14
61035;BME280;46916;40.564;-7.958;2023-01-04T03:06:57;99004.38;;;7.37;65.45
61035;BME280;46916;40.564;-7.958;2023-01-04T03:09:21;99003.69;;;7.33;65.62
61035;BME280;46916;40.564;-7.958;2023-01-04T03:11:33;99004.69;;;7.31;65.68
61035;BME280;46916;40.564;-7.958;2023-01-04T03:13:59;98995.94;;;7.32;65.77
61035;BME280;46916;40.564;-7.958;2023-01-04T03:16:22;99004.50;;;7.34;65.82
61035;BME280;46916;40.564;-7.958;2023-01-04T03:18:30;99000.13;;;7.34;65.97
61035;BME280;46916;40.564;-7.958;2023-01-04T03:20:33;99003.75;;;7.32;66.29
61035;BME280;46916;40.564;-7.958;2023-01-04T03:23:13;99006.41;;;7.30;66.37
61035;BME280;46916;40.564;-7.958;2023-01-04T03:25:30;99006.41;;;7.30;66.70
61035;BME280;46916;40.564;-7.958;2023-01-04T03:27:52;99008.97;;;7.32;66.79
61035;BME280;46916;40.564;-7.958;2023-01-04T03:30:13;99008.03;;;7.33;66.30
61035;BME280;46916;40.564;-7.958;2023-01-04T03:32:55;99006.38;;;7.32;66.59
61035;BME280;46916;40.564;-7.958;2023-01-04T03:35:16;99015.16;;;7.29;66.92
61035;BME280;46916;40.564;-7.958;2023-01-04T03:39:37;99016.91;;;7.29;66.80
61035;BME280;46916;40.564;-7.958;2023-01-04T03:42:03;99017.00;;;7.27;66.49
61035;BME280;46916;40.564;-7.958;2023-01-04T03:44:42;99012.75;;;7.25;66.54
61035;BME280;46916;40.564;-7.958;2023-01-04T03:47:09;99023.47;;;7.18;66.31
61035;BME280;46916;40.564;-7.958;2023-01-04T03:49:55;99020.22;;;7.13;66.50
61035;BME280;46916;40.564;-7.958;2023-01-04T03:52:02;99016.91;;;7.10;66.76
61035;BME280;46916;40.564;-7.958;2023-01-04T03:54:13;99011.78;;;7.08;66.87
61035;BME280;46916;40.564;-7.958;2023-01-04T03:56:19;99010.72;;;7.12;66.53
61035;BME280;46916;40.564;-7.958;2023-01-04T03:58:21;99014.13;;;7.14;66.77
61035;BME280;46916;40.564;-7.958;2023-01-04T04:00:22;99004.44;;;7.16;67.00
61035;BME280;46916;40.564;-7.958;2023-01-04T04:02:27;98999.88;;;7.22;66.82
61035;BME280;46916;40.564;-7.958;2023-01-04T04:04:28;99001.38;;;7.27;66.88
61035;BME280;46916;40.564;-7.958;2023-01-04T04:06:47;99005.44;;;7.33;67.10
61035;BME280;46916;40.564;-7.958;2023-01-04T04:09:07;99008.66;;;7.38;66.81
61035;BME280;46916;40.564;-7.958;2023-01-04T04:11:07;99001.63;;;7.40;66.88
61035;BME280;46916;40.564;-7.958;2023-01-04T04:13:27;98995.41;;;7.42;67.11
61035;BME280;46916;40.564;-7.958;2023-01-04T04:15:27;98996.13;;;7.46;66.86
61035;BME280;46916;40.564;-7.958;2023-01-04T04:17:28;98996.91;;;7.48;66.91
61035;BME280;46916;40.564;-7.958;2023-01-04T04:19:28;98999.50;;;7.48;66.98
61035;BME280;46916;40.564;-7.958;2023-01-04T04:21:29;98998.69;;;7.48;66.61
61035;BME280;46916;40.564;-7.958;2023-01-04T04:23:30;98991.84;;;7.45;66.78
61035;BME280;46916;40.564;-7.958;2023-01-04T04:25:30;98992.75;;;7.44;66.81
61035;BME280;46916;40.564;-7.958;2023-01-04T04:27:31;98988.66;;;7.38;67.28
61035;BME280;46916;40.564;-7.958;2023-01-04T04:29:32;98984.50;;;7.34;67.09
61035;BME280;46916;40.564;-7.958;2023-01-04T04:31:32;98995.09;;;7.31;67.40
61035;BME280;46916;40.564;-7.958;2023-01-04T04:33:33;98991.16;;;7.23;67.62
61035;BME280;46916;40.564;-7.958;2023-01-04T04:35:33;98994.66;;;7.22;67.88
61035;BME280;46916;40.564;-7.958;2023-01-04T04:37:34;98994.03;;;7.16;68.21
61035;BME280;46916;40.564;-7.958;2023-01-04T04:39:36;98995.16;;;7.11;68.25
61035;BME280;46916;40.564;-7.958;2023-01-04T04:41:37;98997.91;;;7.08;68.63
61035;BME280;46916;40.564;-7.958;2023-01-04T04:43:38;98999.59;;;7.09;68.57
61035;BME280;46916;40.564;-7.958;2023-01-04T04:45:39;98993.41;;;7.11;68.27
61035;BME280;46916;40.564;-7.958;2023-01-04T04:47:40;98999.38;;;7.13;68.65
61035;BME280;46916;40.564;-7.958;2023-01-04T04:49:40;98996.78;;;7.13;68.59
61035;BME280;46916;40.564;-7.958;2023-01-04T04:51:42;98994.16;;;7.13;68.53
61035;BME280;46916;40.564;-7.958;2023-01-04T04:53:43;98991.56;;;7.13;69.14
61035;BME280;46916;40.564;-7.958;2023-01-04T04:55:43;98988.19;;;7.11;69.18
61035;BME280;46916;40.564;-7.958;2023-01-04T04:57:44;98992.63;;;7.09;68.92
61035;BME280;46916;40.564;-7.958;2023-01-04T04:59:45;98992.56;;;7.11;69.35
61035;BME280;46916;40.564;-7.958;2023-01-04T05:01:45;98989.88;;;7.12;69.12
61035;BME280;46916;40.564;-7.958;2023-01-04T05:03:46;98987.41;;;7.09;69.23
61035;BME280;46916;40.564;-7.958;2023-01-04T05:05:47;98983.13;;;7.08;69.55
61035;BME280;46916;40.564;-7.958;2023-01-04T05:07:47;98984.97;;;7.06;69.69
61035;BME280;46916;40.564;-7.958;2023-01-04T05:09:48;98978.13;;;7.04;69.59
61035;BME280;46916;40.564;-7.958;2023-01-04T05:11:49;98988.47;;;7.05;69.74
61035;BME280;46916;40.564;-7.958;2023-01-04T05:14:09;98975.50;;;7.04;69.80
61035;BME280;46916;40.564;-7.958;2023-01-04T05:16:09;98979.88;;;7.03;70.11
61035;BME280;46916;40.564;-7.958;2023-01-04T05:18:12;98978.34;;;6.99;70.21
61035;BME280;46916;40.564;-7.958;2023-01-04T05:20:12;98987.13;;;6.97;70.27
61035;BME280;46916;40.564;-7.958;2023-01-04T05:22:13;98986.41;;;6.93;70.30
61035;BME280;46916;40.564;-7.958;2023-01-04T05:24:14;98985.78;;;6.88;70.69
61035;BME280;46916;40.564;-7.958;2023-01-04T05:26:14;98987.47;;;6.89;70.99
61035;BME280;46916;40.564;-7.958;2023-01-04T05:28:15;98988.31;;;6.89;71.00
61035;BME280;46916;40.564;-7.958;2023-01-04T05:30:17;98984.09;;;6.87;71.02
61035;BME280;46916;40.564;-7.958;2023-01-04T05:32:36;98988.50;;;6.85;70.72
61035;BME280;46916;40.564;-7.958;2023-01-04T05:34:37;98984.09;;;6.87;71.20
61035;BME280;46916;40.564;-7.958;2023-01-04T05:36:37;98982.19;;;6.90;70.84
61035;BME280;46916;40.564;-7.958;2023-01-04T05:38:38;98980.56;;;6.88;70.70
61035;BME280;46916;40.564;-7.958;2023-01-04T05:40:39;98980.69;;;6.85;71.12
61035;BME280;46916;40.564;-7.958;2023-01-04T05:42:40;98977.34;;;6.83;71.01
61035;BME280;46916;40.564;-7.958;2023-01-04T05:44:40;98984.44;;;6.79;71.36
61035;BME280;46916;40.564;-7.958;2023-01-04T05:46:41;98981.25;;;6.73;71.37
61035;BME280;46916;40.564;-7.958;2023-01-04T05:48:42;98978.13;;;6.64;71.47
61035;BME280;46916;40.564;-7.958;2023-01-04T05:50:43;98985.44;;;6.56;71.75
61035;BME280;46916;40.564;-7.958;2023-01-04T05:52:45;98987.28;;;6.54;71.90
61035;BME280;46916;40.564;-7.958;2023-01-04T05:54:46;98987.16;;;6.57;71.87
61035;BME280;46916;40.564;-7.958;2023-01-04T05:56:46;98992.16;;;6.62;72.01
61035;BME280;46916;40.564;-7.958;2023-01-04T05:58:47;98992.00;;;6.65;71.64
61035;BME280;46916;40.564;-7.958;2023-01-04T06:00:48;98987.66;;;6.65;71.48
61035;BME280;46916;40.564;-7.958;2023-01-04T06:02:48;98990.25;;;6.65;71.70
61035;BME280;46916;40.564;-7.958;2023-01-04T06:04:51;98991.03;;;6.67;71.42
61035;BME280;46916;40.564;-7.958;2023-01-04T06:06:52;99001.34;;;6.69;71.75
61035;BME280;46916;40.564;-7.958;2023-01-04T06:08:52;98992.66;;;6.70;71.85
61035;BME280;46916;40.564;-7.958;2023-01-04T06:10:53;98998.59;;;6.74;71.60
61035;BME280;46916;40.564;-7.958;2023-01-04T06:12:54;98997.56;;;6.76;71.76
61035;BME280;46916;40.564;-7.958;2023-01-04T06:14:55;98997.53;;;6.78;71.72
61035;BME280;46916;40.564;-7.958;2023-01-04T06:16:56;99001.03;;;6.77;71.80
61035;BME280;46916;40.564;-7.958;2023-01-04T06:18:57;99002.16;;;6.71;71.99
61035;BME280;46916;40.564;-7.958;2023-01-04T06:20:57;99003.31;;;6.64;72.08
61035;BME280;46916;40.564;-7.958;2023-01-04T06:22:58;98998.31;;;6.59;71.78
61035;BME280;46916;40.564;-7.958;2023-01-04T06:24:58;99009.56;;;6.60;71.37
61035;BME280;46916;40.564;-7.958;2023-01-04T06:27:02;98999.69;;;6.48;71.94
61035;BME280;46916;40.564;-7.958;2023-01-04T06:29:03;99011.41;;;6.37;72.26
61035;BME280;46916;40.564;-7.958;2023-01-04T06:31:05;99005.63;;;6.31;72.85
61035;BME280;46916;40.564;-7.958;2023-01-04T06:33:06;99012.78;;;6.26;72.78
61035;BME280;46916;40.564;-7.958;2023-01-04T06:35:07;99011.25;;;6.20;72.80
61035;BME280;46916;40.564;-7.958;2023-01-04T06:37:08;99009.78;;;6.14;73.71
61035;BME280;46916;40.564;-7.958;2023-01-04T06:39:09;99004.97;;;6.05;73.42
61035;BME280;46916;40.564;-7.958;2023-01-04T06:41:09;99010.94;;;6.07;73.97
61035;BME280;46916;40.564;-7.958;2023-01-04T06:43:10;99011.84;;;6.06;74.19
61035;BME280;46916;40.564;-7.958;2023-01-04T06:45:13;99007.69;;;6.02;74.72
61035;BME280;46916;40.564;-7.958;2023-01-04T06:47:14;99012.22;;;5.97;74.30
61035;BME280;46916;40.564;-7.958;2023-01-04T06:49:14;99014.00;;;5.97;75.13
61035;BME280;46916;40.564;-7.958;2023-01-04T06:51:15;99020.16;;;5.94;74.83
61035;BME280;46916;40.564;-7.958;2023-01-04T06:53:16;99024.59;;;5.92;74.78
61035;BME280;46916;40.564;-7.958;2023-01-04T06:55:17;99020.31;;;5.89;74.92
61035;BME280;46916;40.564;-7.958;2023-01-04T06:57:17;99019.38;;;5.92;74.67
61035;BME280;46916;40.564;-7.958;2023-01-04T06:59:18;99019.31;;;5.93;75.18
61035;BME280;46916;40.564;-7.958;2023-01-04T07:01:18;99024.44;;;5.95;74.67
61035;BME280;46916;40.564;-7.958;2023-01-04T07:03:19;99033.81;;;5.99;75.08
61035;BME280;46916;40.564;-7.958;2023-01-04T07:05:20;99029.59;;;5.97;75.14
61035;BME280;46916;40.564;-7.958;2023-01-04T07:07:20;99024.44;;;5.95;74.88
61035;BME280;46916;40.564;-7.958;2023-01-04T07:09:21;99025.22;;;5.97;74.65
61035;BME280;46916;40.564;-7.958;2023-01-04T07:11:22;99018.91;;;6.03;75.00
61035;BME280;46916;40.564;-7.958;2023-01-04T07:13:22;99027.84;;;5.97;74.61
61035;BME280;46916;40.564;-7.958;2023-01-04T07:15:23;99030.53;;;5.94;74.86
61035;BME280;46916;40.564;-7.958;2023-01-04T07:17:24;99035.06;;;5.89;75.04
61035;BME280;46916;40.564;-7.958;2023-01-04T07:19:24;99030.09;;;5.83;75.47
61035;BME280;46916;40.564;-7.958;2023-01-04T07:21:25;99032.59;;;5.86;75.02
61035;BME280;46916;40.564;-7.958;2023-01-04T07:23:26;99025.91;;;5.79;75.80
61035;BME280;46916;40.564;-7.958;2023-01-04T07:25:26;99032.94;;;5.77;75.16
61035;BME280;46916;40.564;-7.958;2023-01-04T07:27:27;99034.63;;;5.78;75.81
61035;BME280;46916;40.564;-7.958;2023-01-04T07:29:28;99026.00;;;5.77;75.21
61035;BME280;46916;40.564;-7.958;2023-01-04T07:31:29;99036.13;;;5.83;75.03
61035;BME280;46916;40.564;-7.958;2023-01-04T07:33:29;99040.25;;;5.89;75.50
61035;BME280;46916;40.564;-7.958;2023-01-04T07:35:30;99038.28;;;5.95;74.38
61035;BME280;46916;40.564;-7.958;2023-01-04T07:37:31;99035.56;;;5.99;74.62
61035;BME280;46916;40.564;-7.958;2023-01-04T07:39:31;99032.84;;;6.02;74.77
61035;BME280;46916;40.564;-7.958;2023-01-04T07:41:32;99044.03;;;6.04;74.53
61035;BME280;46916;40.564;-7.958;2023-01-04T07:43:33;99051.78;;;6.05;73.94
61035;BME280;46916;40.564;-7.958;2023-01-04T07:45:33;99048.25;;;6.06;74.06
61035;BME280;46916;40.564;-7.958;2023-01-04T07:47:36;99045.59;;;6.08;74.37
61035;BME280;46916;40.564;-7.958;2023-01-04T07:49:37;99047.31;;;6.09;73.61
61035;BME280;46916;40.564;-7.958;2023-01-04T07:51:37;99055.94;;;6.09;74.13
61035;BME280;46916;40.564;-7.958;2023-01-04T07:53:38;99057.50;;;6.13;74.01
61035;BME280;46916;40.564;-7.958;2023-01-04T07:55:39;99059.38;;;6.10;74.05
61035;BME280;46916;40.564;-7.958;2023-01-04T07:57:39;99056.78;;;6.10;73.80
61035;BME280;46916;40.564;-7.958;2023-01-04T07:59:40;99064.53;;;6.11;73.65
61035;BME280;46916;40.564;-7.958;2023-01-04T08:01:41;99065.34;;;6.12;73.73
61035;BME280;46916;40.564;-7.958;2023-01-04T08:03:43;99069.69;;;6.13;73.31
61035;BME280;46916;40.564;-7.958;2023-01-04T08:05:44;99071.38;;;6.14;73.69
61035;BME280;46916;40.564;-7.958;2023-01-04T08:07:45;99074.16;;;6.09;74.07
61035;BME280;46916;40.564;-7.958;2023-01-04T08:09:45;99063.63;;;6.12;73.53
61035;BME280;46916;40.564;-7.958;2023-01-04T08:11:46;99074.56;;;6.20;73.47
61035;BME280;46916;40.564;-7.958;2023-01-04T08:13:47;99076.06;;;6.26;73.25
61035;BME280;46916;40.564;-7.958;2023-01-04T08:15:52;99075.09;;;6.29;73.62
61035;BME280;46916;40.564;-7.958;2023-01-04T08:17:54;99075.94;;;6.29;73.04
61035;BME280;46916;40.564;-7.958;2023-01-04T08:19:55;99076.91;;;6.27;73.03
61035;BME280;46916;40.564;-7.958;2023-01-04T08:21:55;99076.91;;;6.27;73.76
61035;BME280;46916;40.564;-7.958;2023-01-04T08:23:57;99080.34;;;6.27;72.97
61035;BME280;46916;40.564;-7.958;2023-01-04T08:26:16;99086.22;;;6.32;72.89
61035;BME280;46916;40.564;-7.958;2023-01-04T08:28:17;99080.88;;;6.35;72.97
61035;BME280;46916;40.564;-7.958;2023-01-04T08:30:17;99079.94;;;6.38;72.88
61035;BME280;46916;40.564;-7.958;2023-01-04T08:32:18;99079.00;;;6.39;72.96
61035;BME280;46916;40.564;-7.958;2023-01-04T08:34:19;99080.88;;;6.57;76.92
61035;BME280;46916;40.564;-7.958;2023-01-04T08:36:29;99091.97;;;6.81;78.02
61035;BME280;46916;40.564;-7.958;2023-01-04T08:38:30;99093.06;;;6.96;77.66
61035;BME280;46916;40.564;-7.958;2023-01-04T08:40:30;99096.06;;;7.07;77.28
61035;BME280;46916;40.564;-7.958;2023-01-04T08:42:31;99094.72;;;7.17;76.70
61035;BME280;46916;40.564;-7.958;2023-01-04T08:44:32;99091.75;;;7.27;76.00
61035;BME280;46916;40.564;-7.958;2023-01-04T08:46:34;99093.00;;;7.37;75.29
61035;BME280;46916;40.564;-7.958;2023-01-04T08:48:35;99094.13;;;7.50;74.63
61035;BME280;46916;40.564;-7.958;2023-01-04T08:50:36;99098.78;;;7.62;73.28
61035;BME280;46916;40.564;-7.958;2023-01-04T08:52:37;99098.38;;;7.72;72.19
61035;BME280;46916;40.564;-7.958;2023-01-04T08:54:37;99093.50;;;7.83;71.78
61035;BME280;46916;40.564;-7.958;2023-01-04T08:56:38;99094.63;;;7.96;70.99
61035;BME280;46916;40.564;-7.958;2023-01-04T08:58:39;99094.78;;;8.10;70.29
61035;BME280;46916;40.564;-7.958;2023-01-04T09:00:40;99096.91;;;8.21;69.86
61035;BME280;46916;40.564;-7.958;2023-01-04T09:02:40;99091.13;;;8.32;69.51
61035;BME280;46916;40.564;-7.958;2023-01-04T09:04:41;99091.41;;;8.44;68.78
61035;BME280;46916;40.564;-7.958;2023-01-04T09:06:42;99088.28;;;8.55;68.11
61035;BME280;46916;40.564;-7.958;2023-01-04T09:08:43;99089.53;;;8.65;67.64
61035;BME280;46916;40.564;-7.958;2023-01-04T09:10:43;99095.84;;;8.77;67.85
61035;BME280;46916;40.564;-7.958;2023-01-04T09:12:44;99095.41;;;8.86;67.64
61035;BME280;46916;40.564;-7.958;2023-01-04T09:14:47;99097.47;;;8.97;67.46
61035;BME280;46916;40.564;-7.958;2023-01-04T09:16:47;99094.38;;;9.06;67.73
61035;BME280;46916;40.564;-7.958;2023-01-04T09:18:48;99092.97;;;9.16;66.74
61035;BME280;46916;40.564;-7.958;2023-01-04T09:20:49;99096.81;;;9.27;66.03
61035;BME280;46916;40.564;-7.958;2023-01-04T09:22:49;99093.84;;;9.33;65.55
61035;BME280;46916;40.564;-7.958;2023-01-04T09:24:50;99112.69;;;9.39;65.17
61035;BME280;46916;40.564;-7.958;2023-01-04T09:26:51;99106.38;;;9.43;65.54
61035;BME280;46916;40.564;-7.958;2023-01-04T09:28:54;99112.19;;;9.49;65.00
61035;BME280;46916;40.564;-7.958;2023-01-04T09:30:55;99106.19;;;9.47;64.55
61035;BME280;46916;40.564;-7.958;2023-01-04T09:32:55;99105.19;;;9.49;64.90
61035;BME280;46916;40.564;-7.958;2023-01-04T09:34:56;99112.94;;;9.51;64.89
61035;BME280;46916;40.564;-7.958;2023-01-04T09:36:57;99116.25;;;9.54;63.57
61035;BME280;46916;40.564;-7.958;2023-01-04T09:38:57;99115.13;;;9.42;64.32
61035;BME280;46916;40.564;-7.958;2023-01-04T09:41:13;99116.06;;;9.41;64.80
61035;BME280;46916;40.564;-7.958;2023-01-04T09:43:18;99112.34;;;9.46;64.80
61035;BME280;46916;40.564;-7.958;2023-01-04T09:45:23;99118.09;;;9.52;65.32
61035;BME280;46916;40.564;-7.958;2023-01-04T09:47:35;99115.09;;;9.60;65.12
61035;BME280;46916;40.564;-7.958;2023-01-04T09:51:44;99110.28;;;9.84;64.89
61035;BME280;46916;40.564;-7.958;2023-01-04T09:53:59;99117.06;;;9.88;64.27
61035;BME280;46916;40.564;-7.958;2023-01-04T09:56:09;99126.66;;;9.87;63.94
61035;BME280;46916;40.564;-7.958;2023-01-04T09:58:31;99121.50;;;9.86;64.08
61035;BME280;46916;40.564;-7.958;2023-01-04T10:00:40;99124.97;;;9.86;62.81
61035;BME280;46916;40.564;-7.958;2023-01-04T10:02:56;99118.88;;;9.70;62.89
61035;BME280;46916;40.564;-7.958;2023-01-04T10:05:03;99129.44;;;9.68;63.41
61035;BME280;46916;40.564;-7.958;2023-01-04T10:07:12;99130.44;;;9.66;62.95
61035;BME280;46916;40.564;-7.958;2023-01-04T10:09:16;99128.59;;;9.68;63.82
61035;BME280;46916;40.564;-7.958;2023-01-04T10:11:23;99129.88;;;9.77;64.46
61035;BME280;46916;40.564;-7.958;2023-01-04T10:16:16;99137.06;;;10.05;64.21
61035;BME280;46916;40.564;-7.958;2023-01-04T10:32:41;99130.16;;;10.65;64.02
61035;BME280;46916;40.564;-7.958;2023-01-04T10:34:43;99136.28;;;10.80;63.81
61035;BME280;46916;40.564;-7.958;2023-01-04T10:36:44;99140.91;;;10.91;63.33
61035;BME280;46916;40.564;-7.958;2023-01-04T10:39:03;99134.44;;;10.97;62.88
61035;BME280;46916;40.564;-7.958;2023-01-04T10:41:09;99142.63;;;11.06;62.16
61035;BME280;46916;40.564;-7.958;2023-01-04T10:46:08;99141.00;;;11.18;62.08
61035;BME280;46916;40.564;-7.958;2023-01-04T10:48:33;99137.19;;;11.24;61.76
61035;BME280;46916;40.564;-7.958;2023-01-04T10:51:04;99130.72;;;11.29;61.74
61035;BME280;46916;40.564;-7.958;2023-01-04T10:53:12;99134.84;;;11.33;62.59
61035;BME280;46916;40.564;-7.958;2023-01-04T10:55:24;99130.38;;;11.35;61.69
61035;BME280;46916;40.564;-7.958;2023-01-04T10:57:34;99124.34;;;11.33;61.92
61035;BME280;46916;40.564;-7.958;2023-01-04T10:59:45;99126.25;;;11.31;62.25
61035;BME280;46916;40.564;-7.958;2023-01-04T11:08:27;99115.28;;;11.39;63.53
61035;BME280;46916;40.564;-7.958;2023-01-04T11:10:38;99112.38;;;11.44;63.48
61035;BME280;46916;40.564;-7.958;2023-01-04T11:12:41;99110.97;;;11.52;63.72
61035;BME280;46916;40.564;-7.958;2023-01-04T11:14:42;99112.66;;;11.53;63.41
61035;BME280;46916;40.564;-7.958;2023-01-04T11:16:47;99110.78;;;11.55;62.94
61035;BME280;46916;40.564;-7.958;2023-01-04T11:18:50;99108.41;;;11.51;62.97
61035;BME280;46916;40.564;-7.958;2023-01-04T11:20:51;99107.50;;;11.52;62.83
61035;BME280;46916;40.564;-7.958;2023-01-04T11:22:58;99102.81;;;11.57;63.35
61035;BME280;46916;40.564;-7.958;2023-01-04T11:25:04;99107.66;;;11.63;63.55
61035;BME280;46916;40.564;-7.958;2023-01-04T11:27:13;99108.91;;;11.57;62.69
61035;BME280;46916;40.564;-7.958;2023-01-04T11:29:39;99098.69;;;11.53;62.82
61035;BME280;46916;40.564;-7.958;2023-01-04T11:31:51;99096.53;;;11.59;62.75
61035;BME280;46916;40.564;-7.958;2023-01-04T11:33:59;99098.03;;;11.63;62.99
61035;BME280;46916;40.564;-7.958;2023-01-04T11:36:00;99093.81;;;11.61;63.22
61035;BME280;46916;40.564;-7.958;2023-01-04T11:38:35;99096.91;;;11.53;63.70
61035;BME280;46916;40.564;-7.958;2023-01-04T11:40:35;99086.59;;;11.50;64.09
61035;BME280;46916;40.564;-7.958;2023-01-04T11:42:36;99093.44;;;11.53;64.35
61035;BME280;46916;40.564;-7.958;2023-01-04T11:44:36;99099.16;;;11.59;64.42
61035;BME280;46916;40.564;-7.958;2023-01-04T11:46:37;99090.53;;;11.57;64.58
61035;BME280;46916;40.564;-7.958;2023-01-04T11:48:39;99084.56;;;11.55;64.27
61035;BME280;46916;40.564;-7.958;2023-01-04T11:50:41;99084.19;;;11.47;64.45
61035;BME280;46916;40.564;-7.958;2023-01-04T11:52:42;99081.34;;;11.50;64.82
61035;BME280;46916;40.564;-7.958;2023-01-04T11:54:45;99081.34;;;11.50;65.15